Brisbane, Queensland, Australia, Latitude 27°S 23' 52", Longitude 152° E 55' 35", Elevation 76 m

At: Sat 29 Feb 2020 11:00:04 am, Temperature: 28.6 °C, Humidity: 56 %, Wind speed: 9 km/h, Wind Gust: 14 km/h, Rain today: 0.0 mm, MSLP: 1013.99 hPa

Website under continual development from 10 years of weather data. Please contact us if you find issues or like to provide feedback.

Recent Observations

This page presents the weather data from the last 72 hours at 30 minute intervals.

Last updated at 11:00:04 am AEST on Sat 29 February 2020.

Last 24 hours
Date/Time(AEST) Temp. ( °C) Dew Point ( °C) Relative Humidity (%) Apparent Temp. ( °C) Wind Direction Wind Speed (kph) Wind Gust (kph) Wind Speed (kts) Wind Gust (kts) MSL Pressure (hPa) Rain since midnight (mm)
29/02 11:00 am 28.6 18.9 56 30.0 S 9 14 5 8 1013.99 0.0
29/02 10:30 am 29.6 19.3 54 26.7 S 9 17 5 9 1014.09 0.0
29/02 10:00 am 27.3 20.4 66 24.2 S 10 17 5 9 1014.22 0.0
29/02 9:30 am 27.8 19.1 59 25.5 S 8 15 4 8 1014.22 0.0
29/02 9:00 am 27.9 19.5 60 25.7 S 8 14 4 8 1014.09 0.0
29/02 8:30 am 27.6 19.4 61 26.8 SSE 6 15 3 8 1013.68 0.0
29/02 8:00 am 25.8 19.2 67 23.5 SSW 8 17 4 9 1013.48 0.0
29/02 7:30 am 24.6 18.8 70 23.5 SSW 6 10 3 5 1013.28 0.0
29/02 7:00 am 23.7 18.5 73 21.1 SSW 8 15 4 8 1013.17 0.0
29/02 6:30 am 23.2 18.5 75 22 SSW 6 10 3 5 1012.77 0.0
29/02 6:00 am 23.0 18.3 75 22.4 SSW 5 8 3 4 1012.36 0.0
29/02 5:30 am 23.2 18.5 75 24.1 SSW 3 6 2 3 1012.12 0.0
29/02 5:00 am 23.2 18.5 75 22.7 SSW 5 12 3 6 1011.72 0.0
29/02 4:30 am 23.1 18.6 76 22.7 SSW 5 12 3 6 1011.41 0.0
29/02 4:00 am 23.1 18.6 76 24.1 SSW 3 8 2 4 1011.38 0.0
29/02 3:30 am 22.9 19.1 79 24.1 SSW 3 8 2 4 1011.38 0.0
29/02 3:00 am 22.7 19.1 80 26 CALM 0 4 0 2 1011.14 0.0
29/02 2:30 am 23.0 19.2 79 24.9 SSW 2 4 1 2 1011.07 0.0
29/02 2:00 am 23.1 19.5 80 25.8 SSW 1 4 1 2 1011.21 0.0
29/02 1:30 am 23.3 19.5 79 26.7 CALM 0 4 0 2 1011.11 0.0
29/02 1:00 am 23.7 19.8 79 25.2 S 3 6 2 3 1011.31 0.0
29/02 12:30 am 23.8 20.0 79 26.8 SSW 1 4 1 2 1011.68 0.0
29/02 12:00 am 23.9 20.0 79 27.6 SSW 0 6 0 3 1011.58 0.0
28/02 11:30 pm 23.8 20.1 80 27.6 CALM 0 2 0 1 1011.45 0.6
28/02 11:05 pm 23.9 20.2 80 27.7 CALM 0 0 0 0 1011.14 0.6
28/02 11:05 pm 23.9 20.2 80 27.7 CALM 0 0 0 0 1011.14 0.6
28/02 10:00 pm 24.0 20.3 80 27.9 CALM 0 0 0 0 1011.14 0.6
28/02 9:30 pm 24.3 20.7 80 28.3 CALM 0 0 0 0 1011.21 0.6
28/02 9:00 pm 24.7 21.0 80 28.9 CALM 0 0 0 0 1011.24 0.6
28/02 8:30 pm 25.4 20.2 73 29.2 CALM 0 0 0 0 1010.84 0.6
28/02 8:00 pm 26.1 19.5 67 29.6 CALM 3 8 2 4 1009.75 0.0
28/02 7:30 pm 26.2 19.6 67 27.6 ENE 3 8 2 4 1009.75 0.0
28/02 7:00 pm 26.4 19.5 66 27.8 ESE 3 8 2 4 1009.25 0.0
28/02 6:30 pm 26.9 20.1 66 28.5 ESE 3 15 2 8 1008.67 0.0
28/02 6:00 pm 27.6 20.6 66 27.4 ENE 6 14 3 8 1008.33 0.0
28/02 5:30 pm 27.6 20.2 64 27.2 NE 6 14 3 8 1008.06 0.0
28/02 5:00 pm 27.7 19.2 60 26.1 NE 7 14 4 8 1007.42 0.0
28/02 4:30 pm 28.3 18.7 56 25.8 ENE 8 14 4 8 1007.38 0.0
28/02 4:00 pm 29.6 19.6 55 27.5 ENE 8 21 4 11 1006.84 0.0
28/02 3:30 pm 30.6 19.3 51 27 ENE 10 21 5 11 1006.20 0.0
28/02 3:00 pm 31.5 19.5 49 30 E 7 14 4 8 1006.06 0.0
28/02 2:30 pm 32.9 19.1 44 29.8 ENE 9 14 5 8 1006.06 0.0
28/02 2:00 pm 32.7 19.2 45 30.4 E 8 15 4 8 1006.30 0.0
28/02 1:30 pm 32.2 19.5 47 30 E 8 17 4 9 1006.43 0.0
28/02 1:00 pm 33.3 18.2 41 32 S 6 14 3 8 1006.94 0.0
28/02 12:30 pm 31.8 19.8 49 31.2 SE 6 10 3 5 1007.18 0.0
28/02 12:00 pm 32.5 19.4 46 33.8 ESE 3 10 2 5 1007.42 0.0
28/02 11:30 am 31.9 20.5 51 33 SSE 4 8 2 4 1007.62 0.0
24 to 48 hours ago
Date/Time(AEST) Temp. °C Dew Point °C Relative Humidity % Appararent Temp. °C Wind Direction Wind Speed (kph) Wind Gust (kph) Wind Speed (kts) Wind Gust (kts) MSL Pressure (hPa) Rain since midnight (mm)
28/02 11:00 am 31.2 19.9 51 30.6 ENE 6 10 3 5 1007.82 0.0
28/02 10:30 am 31.4 20.7 53 31.2 NNE 6 10 3 5 1007.92 0.0
28/02 10:00 am 30.6 20.8 56 32.6 ESE 3 8 2 4 1008.47 0.0
28/02 9:30 am 29.6 22.3 65 32.4 SSE 3 15 2 8 1008.40 0.0
28/02 9:00 am 28.9 22.6 69 31.8 SSW 3 6 2 3 1008.36 0.0
28/02 8:30 am 27.1 22.7 77 29.4 S 4 8 2 4 1008.30 0.0
28/02 8:00 am 24.4 21.7 85 26.8 SSE 3 6 2 3 1007.92 0.0
28/02 7:30 am 22.7 21.1 91 27 S 0 6 0 3 1007.92 0.0
28/02 7:00 am 21.3 20.0 92 25 CALM 0 0 0 0 1007.89 0.0
28/02 6:30 am 20.2 18.7 91 23.3 CALM 0 2 0 1 1007.72 0.0
28/02 6:00 am 19.9 18.4 91 22.9 CALM 0 0 0 0 1007.45 0.0
28/02 5:30 am 19.9 18.4 91 22.9 CALM 0 0 0 0 1007.28 0.0
28/02 5:00 am 20.1 18.6 91 23.1 CALM 0 0 0 0 1007.18 0.0
28/02 4:30 am 20.3 18.8 91 23.4 CALM 0 0 0 0 1006.81 0.0
28/02 4:00 am 20.5 19.0 91 23.7 CALM 0 0 0 0 1006.54 0.0
28/02 3:30 am 20.5 19.0 91 23.7 CALM 0 0 0 0 1006.74 0.0
28/02 3:00 am 20.7 19.1 91 24 CALM 0 0 0 0 1006.81 0.0
28/02 2:30 am 20.9 19.4 91 24.3 CALM 0 0 0 0 1006.91 0.0
28/02 2:00 am 21.0 19.3 90 24.4 CALM 0 0 0 0 1006.94 0.0
28/02 1:30 am 21.1 19.2 89 24.4 CALM 0 0 0 0 1007.11 0.0
28/02 1:00 am 21.3 19.4 89 24.7 CALM 0 0 0 0 1007.45 0.0
28/02 12:30 am 21.5 19.4 88 24.9 CALM 0 0 0 0 1007.72 0.0
28/02 12:00 am 21.7 19.6 88 25.2 CALM 0 0 0 0 1007.92 0.0
27/02 11:30 pm 21.9 19.6 87 25.4 CALM 0 0 0 0 1008.16 1.0
27/02 11:00 pm 22.0 19.5 86 25.5 CALM 0 0 0 0 1008.50 1.0
27/02 10:30 pm 22.3 19.6 85 25.8 CALM 0 0 0 0 1008.43 1.0
27/02 10:00 pm 22.4 19.6 84 25.9 CALM 0 0 0 0 1008.47 1.0
27/02 9:30 pm 22.4 19.6 84 25.9 CALM 0 0 0 0 1008.43 1.0
27/02 9:00 pm 22.7 19.4 82 26.1 CALM 0 4 0 2 1008.57 1.0
27/02 8:30 pm 23.0 19.6 81 26.5 NE 0 2 0 1 1008.13 1.0
27/02 8:00 pm 23.4 19.9 81 27.1 CALM 1 0 1 0 1007.48 1.0
27/02 7:30 pm 23.7 20.1 80 26.7 CALM 1 0 1 0 1007.48 1.0
27/02 7:00 pm 24.1 20.0 78 27.8 CALM 0 4 0 2 1007.65 1.0
27/02 6:30 pm 24.6 20.3 77 26.3 NE 3 4 2 2 1006.60 1.0
27/02 6:00 pm 25.1 20.5 76 28.4 NE 1 6 1 3 1006.84 1.0
27/02 5:30 pm 25.2 20.7 76 27.1 NNE 3 8 2 4 1006.71 1.0
27/02 5:00 pm 24.9 20.8 78 26.9 ENE 3 12 2 6 1006.84 1.0
27/02 4:30 pm 24.8 20.5 77 26.6 E 3 6 2 3 1007.04 1.0
27/02 4:00 pm 25.1 20.8 77 27.1 ESE 3 8 2 4 1006.94 1.0
27/02 3:30 pm 24.3 20.2 78 23.9 ENE 6 12 3 6 1006.81 1.0
27/02 3:00 pm 26.9 20.3 67 24.4 ENE 9 27 5 15 1007.18 0.0
27/02 2:30 pm 28.1 21.6 68 24.2 NE 12 19 6 10 1006.74 0.0
27/02 2:00 pm 29.4 22.6 67 26 ENE 12 21 6 11 1006.33 0.0
27/02 1:30 pm 28.7 22.2 68 26.5 E 10 17 5 9 1006.13 0.0
27/02 1:00 pm 29.2 22.7 68 30.1 E 6 14 3 8 1006.27 0.0
27/02 12:30 pm 30.3 22.4 63 32.4 SSE 4 15 2 8 1006.13 0.0
27/02 12:00 pm 30.8 22.4 61 31.5 ESE 6 12 3 6 1006.57 0.0
27/02 11:30 am 30.7 22.6 62 33.6 ESE 3 8 2 4 1006.54 0.0
48 to 72 hours ago
Date/Time(AEST) Temp. °C Dew Point °C Relative Humidity % Appararent Temp. °C Wind Direction Wind Speed (kph) Wind Gust (kph) Wind Speed (kts) Wind Gust (kts) MSL Pressure (hPa) Rain since midnight (mm)
27/02 11:00 am 29.8 22.5 65 29.9 N 7 14 4 8 1007.15 0.0
27/02 10:30 am 28.2 21.9 69 32.2 NNE 1 2 1 1 1008.06 0.0
27/02 10:00 am 28.3 22.1 69 30.9 NE 3 8 2 4 1008.13 0.0
27/02 9:30 am 28.1 22.1 70 30.1 N 4 10 2 5 1007.86 0.0
27/02 9:00 am 28.2 22.2 70 29.5 ENE 5 6 3 3 1007.79 0.0
27/02 8:30 am 28.4 22.2 69 29 NNE 6 12 3 6 1007.92 0.0
27/02 8:00 am 26.9 21.4 72 29.2 NNE 3 10 2 5 1007.62 0.0
27/02 7:30 am 25.1 21.4 80 28.1 S 2 6 1 3 1007.59 0.0
27/02 7:00 am 23.5 20.8 85 27.6 CALM 0 2 0 1 1007.55 0.0
27/02 6:30 am 23.1 20.4 85 27 CALM 0 2 0 1 1007.42 0.0
27/02 6:00 am 23.1 20.4 85 27 CALM 0 0 0 0 1007.08 0.0
27/02 5:30 am 23.2 20.7 86 27.2 CALM 0 0 0 0 1007.15 0.0
27/02 5:00 am 23.2 20.5 85 27.2 CALM 0 0 0 0 1007.11 0.0
27/02 4:30 am 23.2 20.7 86 27.2 CALM 0 0 0 0 1006.74 0.0
27/02 4:00 am 23.1 20.3 84 26.9 CALM 0 0 0 0 1006.64 0.0
27/02 3:30 am 23.3 20.3 83 27.1 CALM 0 0 0 0 1006.71 0.0
27/02 3:00 am 23.8 20.5 82 27.8 CALM 0 0 0 0 1006.87 0.0
27/02 2:30 am 24.1 20.8 82 28.2 CALM 0 0 0 0 1006.94 0.0
27/02 2:00 am 24.2 20.8 81 28.2 CALM 0 0 0 0 1007.28 0.0
27/02 1:30 am 24.4 21.0 81 28.5 CALM 0 0 0 0 1007.79 0.0
27/02 1:00 am 24.6 21.1 81 28.8 CALM 0 0 0 0 1007.96 0.0
27/02 12:30 am 24.8 21.1 80 29 CALM 0 0 0 0 1008.33 0.0
27/02 12:00 am 25.2 21.5 80 29.6 CALM 0 0 0 0 1008.67 0.0
26/02 11:30 pm 25.2 21.3 79 29.5 CALM 0 0 0 0 1008.91 0.0
26/02 11:00 pm 25.4 21.5 79 29.8 CALM 0 2 0 1 1008.94 0.0
26/02 10:30 pm 25.6 21.4 78 30 CALM 0 0 0 0 1009.25 0.0
26/02 10:00 pm 25.8 21.4 77 28.1 NNE 3 6 2 3 1009.04 0.0
26/02 9:30 pm 25.8 21.4 77 29.5 NE 1 6 1 3 1009.01 0.0
26/02 9:00 pm 25.9 21.4 76 30.3 CALM 0 0 0 0 1008.70 0.0
26/02 8:30 pm 26.2 21.4 75 30.6 CALM 0 6 0 3 1008.60 0.0
26/02 8:00 pm 26.4 21.4 74 29.4 N 6 14 3 8 1007.79 0.0
26/02 7:30 pm 26.4 21.2 73 26.5 NNE 6 14 3 8 1007.79 0.0
26/02 7:00 pm 26.7 21.6 74 27 N 6 15 3 8 1007.76 0.0
26/02 6:30 pm 26.8 21.5 73 27.1 N 6 12 3 6 1008.03 0.0
26/02 6:00 pm 27.1 21.6 72 28.1 NE 5 14 3 8 1007.35 0.0
26/02 5:30 pm 27.8 21.6 69 30.2 ENE 3 4 2 2 1007.08 0.0
26/02 5:00 pm 28.3 21.3 66 29.9 NE 4 8 2 4 1006.98 0.0
26/02 4:30 pm 29.2 21.4 63 29.4 NE 6 14 3 8 1006.84 0.0
26/02 4:00 pm 29.7 21.9 63 30.1 ENE 6 14 3 8 1006.57 0.0
26/02 3:30 pm 29.9 21.8 62 30.3 NNE 6 14 3 8 1006.81 0.0
26/02 3:00 pm 30.2 21.9 61 26.4 NNE 12 15 6 8 1007.11 0.0
26/02 2:30 pm 30.5 21.3 58 32 ENE 4 12 2 6 1007.55 0.0
26/02 2:00 pm 30.9 21.4 57 31.1 NE 6 10 3 5 1007.79 0.0
26/02 1:30 pm 30.0 21.7 61 30.3 NNE 6 12 3 6 1008.43 0.0
26/02 1:00 pm 30.4 21.5 59 32 ESE 4 6 2 3 1008.70 0.0
26/02 12:30 pm 30.9 22.0 59 34.2 E 2 8 1 4 1009.14 0.0
26/02 12:00 pm 30.2 21.8 61 30.6 SSE 6 10 3 5 1009.69 0.0
26/02 11:30 am 30.8 21.6 58 31.8 E 5 10 3 5 1009.82 0.0